createdAt,value
2023-04-11T00:01:53.224Z,8.20
2023-04-11T00:04:21.172Z,11.30
2023-04-11T00:06:48.752Z,10.48
2023-04-11T00:09:17.092Z,6.78
2023-04-11T00:11:45.066Z,12.27
2023-04-11T00:14:12.590Z,10.15
2023-04-11T00:16:41.508Z,11.12
2023-04-11T00:19:09.642Z,4.55
2023-04-11T00:21:40.112Z,6.62
2023-04-11T00:24:08.363Z,5.15
2023-04-11T00:26:36.172Z,13.02
2023-04-11T00:29:03.596Z,15.45
2023-04-11T00:31:31.030Z,9.38
2023-04-11T00:33:58.908Z,5.80
2023-04-11T00:36:27.014Z,9.70
2023-04-11T00:38:58.613Z,9.15
2023-04-11T00:41:26.434Z,6.87
2023-04-11T00:43:54.341Z,9.70
2023-04-11T00:46:22.031Z,12.55
2023-04-11T00:48:49.774Z,8.82
2023-04-11T00:51:17.878Z,5.72
2023-04-11T00:53:48.612Z,9.27
2023-04-11T00:56:16.469Z,9.38
2023-04-11T00:58:44.346Z,7.12
2023-04-11T01:01:11.771Z,4.68
2023-04-11T01:03:40.161Z,12.80
2023-04-11T01:06:12.061Z,3.37
2023-04-11T01:08:41.274Z,6.97
2023-04-11T01:11:09.594Z,7.70
2023-04-11T01:13:39.789Z,10.05
2023-04-11T01:16:08.244Z,2.78
2023-04-11T01:18:36.297Z,5.60
2023-04-11T01:21:03.811Z,9.07
2023-04-11T01:23:31.582Z,15.85
2023-04-11T01:25:59.989Z,15.02
2023-04-11T01:28:27.712Z,21.75
2023-04-11T01:30:55.636Z,13.43
2023-04-11T01:33:23.557Z,14.48
2023-04-11T01:35:51.126Z,19.90
2023-04-11T01:38:18.891Z,8.07
2023-04-11T01:40:46.713Z,8.57
2023-04-11T01:43:14.302Z,11.52
2023-04-11T01:45:43.038Z,8.52
2023-04-11T01:48:10.783Z,6.37
2023-04-11T01:50:39.188Z,15.27
2023-04-11T01:53:07.718Z,9.10
2023-04-11T01:55:35.275Z,6.03
2023-04-11T01:58:02.677Z,9.05
2023-04-11T02:00:30.379Z,11.60
2023-04-11T02:02:58.170Z,9.48
2023-04-11T02:05:25.909Z,12.88
2023-04-11T02:07:56.145Z,14.87
2023-04-11T02:10:24.689Z,5.62
2023-04-11T02:12:52.240Z,9.75
2023-04-11T02:15:19.869Z,4.20
2023-04-11T02:17:47.649Z,6.28
2023-04-11T02:20:15.482Z,11.07
2023-04-11T02:22:42.940Z,6.82
2023-04-11T02:25:10.302Z,7.50
2023-04-11T02:27:37.978Z,9.75
2023-04-11T02:30:06.216Z,6.78
2023-04-11T02:32:34.757Z,10.43
2023-04-11T02:35:02.573Z,7.40
2023-04-11T02:37:30.042Z,19.23
2023-04-11T02:39:58.160Z,6.60
2023-04-11T02:42:25.825Z,9.35
2023-04-11T02:44:55.667Z,10.10
2023-04-11T02:47:25.612Z,7.22
2023-04-11T02:49:54.305Z,15.23
2023-04-11T02:52:23.745Z,9.48
2023-04-11T02:54:51.342Z,10.05
2023-04-11T02:57:19.217Z,3.75
2023-04-11T02:59:46.762Z,4.93
2023-04-11T03:02:15.554Z,9.93
2023-04-11T03:04:44.310Z,9.57
2023-04-11T03:07:12.584Z,8.15
2023-04-11T03:09:40.571Z,6.60
2023-04-11T03:12:08.297Z,9.18
2023-04-11T03:14:37.031Z,9.55
2023-04-11T03:17:04.638Z,6.03
2023-04-11T03:19:32.656Z,12.65
2023-04-11T03:22:01.529Z,8.55
2023-04-11T03:24:28.971Z,6.12
2023-04-11T03:26:57.727Z,4.90
2023-04-11T03:29:25.339Z,6.12
2023-04-11T03:31:53.311Z,5.53
2023-04-11T03:34:21.970Z,4.40
2023-04-11T03:36:50.565Z,8.70
2023-04-11T03:39:19.715Z,5.25
2023-04-11T03:41:48.465Z,10.57
2023-04-11T03:44:15.938Z,7.43
2023-04-11T03:46:44.371Z,5.95
2023-04-11T03:49:12.138Z,10.15
2023-04-11T03:51:39.506Z,9.13
2023-04-11T03:54:07.332Z,4.70
2023-04-11T03:56:35.167Z,5.03
2023-04-11T03:59:02.903Z,4.78
2023-04-11T04:01:32.471Z,9.45
2023-04-11T04:04:00.942Z,8.23
2023-04-11T04:06:29.468Z,7.95
2023-04-11T04:08:59.670Z,5.47
2023-04-11T04:11:29.928Z,5.07
2023-04-11T04:13:57.925Z,4.32
2023-04-11T04:16:25.781Z,3.00
2023-04-11T04:18:53.899Z,3.70
2023-04-11T04:21:21.988Z,5.97
2023-04-11T04:23:50.514Z,4.40
2023-04-11T04:26:24.966Z,6.07
2023-04-11T04:28:54.021Z,5.37
2023-04-11T04:31:25.872Z,4.28
2023-04-11T04:33:58.695Z,8.65
2023-04-11T04:36:26.495Z,2.97
2023-04-11T04:38:57.602Z,6.00
2023-04-11T04:41:25.077Z,4.43
2023-04-11T04:43:58.321Z,7.87
2023-04-11T04:46:26.784Z,6.65
2023-04-11T04:48:54.523Z,6.65
2023-04-11T04:51:22.490Z,6.75
2023-04-11T04:53:50.892Z,4.15
2023-04-11T04:56:18.595Z,8.07
2023-04-11T04:58:47.331Z,7.03
2023-04-11T05:01:16.589Z,5.25
2023-04-11T05:03:46.819Z,5.53
2023-04-11T05:06:14.949Z,8.55
2023-04-11T05:08:43.703Z,4.40
2023-04-11T05:11:11.645Z,6.90
2023-04-11T05:13:39.131Z,5.28
2023-04-11T05:16:07.262Z,9.90
2023-04-11T05:18:35.399Z,10.70
2023-04-11T05:21:02.959Z,6.30
2023-04-11T05:23:30.711Z,8.77
2023-04-11T05:26:01.200Z,8.77
2023-04-11T05:28:31.741Z,11.70
2023-04-11T05:30:59.857Z,12.30
2023-04-11T05:33:28.779Z,5.15
2023-04-11T05:35:57.264Z,5.47
2023-04-11T05:38:24.685Z,8.40
2023-04-11T05:40:52.677Z,8.18
2023-04-11T05:43:20.083Z,6.43
2023-04-11T05:45:47.778Z,7.18
2023-04-11T05:48:18.819Z,9.02
2023-04-11T05:50:46.548Z,5.65
2023-04-11T05:53:14.055Z,6.28
2023-04-11T05:55:41.679Z,7.18
2023-04-11T05:58:10.078Z,11.07
2023-04-11T06:00:38.404Z,9.93
2023-04-11T06:03:07.972Z,8.20
2023-04-11T06:05:36.381Z,17.23
2023-04-11T06:08:07.822Z,17.00
2023-04-11T06:10:35.986Z,11.82
2023-04-11T06:13:03.515Z,15.77
2023-04-11T06:15:30.921Z,15.98
2023-04-11T06:17:58.636Z,15.60
2023-04-11T06:20:26.182Z,12.48
2023-04-11T06:22:53.817Z,12.70
2023-04-11T06:25:21.954Z,10.82
2023-04-11T06:27:50.153Z,12.50
2023-04-11T06:30:17.568Z,10.10
2023-04-11T06:32:45.299Z,12.02
2023-04-11T06:35:12.742Z,13.60
2023-04-11T06:37:42.310Z,13.20
2023-04-11T06:40:10.591Z,13.45
2023-04-11T06:42:38.278Z,12.80
2023-04-11T06:45:06.557Z,11.38
2023-04-11T06:47:34.207Z,8.60
2023-04-11T06:50:01.630Z,15.57
2023-04-11T06:52:29.007Z,11.20
2023-04-11T06:54:56.666Z,14.05
2023-04-11T06:57:24.007Z,23.83
2023-04-11T06:59:51.427Z,9.13
2023-04-11T07:02:19.200Z,21.00
2023-04-11T07:04:46.848Z,13.60
2023-04-11T07:07:14.320Z,12.68
2023-04-11T07:09:43.481Z,14.60
2023-04-11T07:12:10.948Z,17.58
2023-04-11T07:14:38.335Z,8.68
2023-04-11T07:17:06.066Z,15.13
2023-04-11T07:19:33.483Z,16.55
2023-04-11T07:22:00.936Z,12.57
2023-04-11T07:24:30.505Z,13.93
2023-04-11T07:27:01.895Z,9.82
2023-04-11T07:29:29.681Z,9.50
2023-04-11T07:31:57.149Z,9.32
2023-04-11T07:34:24.651Z,10.60
2023-04-11T07:36:52.358Z,10.35
2023-04-11T07:39:19.779Z,10.55
2023-04-11T07:41:47.269Z,12.93
2023-04-11T07:44:14.953Z,9.65
2023-04-11T07:46:42.343Z,12.77
2023-04-11T07:49:09.705Z,15.75
2023-04-11T07:51:37.408Z,12.35
2023-04-11T07:54:04.848Z,10.70
2023-04-11T07:56:32.179Z,10.48
2023-04-11T07:59:01.316Z,15.57
2023-04-11T08:01:28.792Z,13.10
2023-04-11T08:03:57.165Z,17.58
2023-04-11T08:06:25.244Z,13.48
2023-04-11T08:08:52.602Z,7.15
2023-04-11T08:11:20.615Z,11.82
2023-04-11T08:13:48.067Z,13.82
2023-04-11T08:16:15.852Z,15.23
2023-04-11T08:18:45.640Z,11.85
2023-04-11T08:21:13.227Z,16.40
2023-04-11T08:23:54.170Z,16.58
2023-04-11T08:26:22.178Z,13.55
2023-04-11T08:28:49.518Z,13.07
2023-04-11T08:31:18.180Z,20.52
2023-04-11T08:33:46.002Z,14.98
2023-04-11T08:36:13.434Z,16.77
2023-04-11T08:38:40.917Z,11.60
2023-04-11T08:41:08.783Z,14.00
2023-04-11T08:43:37.044Z,14.98
2023-04-11T08:46:05.087Z,13.45
2023-04-11T08:48:32.963Z,16.15
2023-04-11T08:51:00.407Z,16.45
2023-04-11T08:53:30.165Z,16.33
2023-04-11T08:55:58.914Z,13.77
2023-04-11T08:58:26.716Z,14.23
2023-04-11T09:00:54.115Z,21.92
2023-04-11T09:03:21.933Z,19.20
2023-04-11T09:05:49.847Z,16.15
2023-04-11T09:08:17.432Z,16.15
2023-04-11T09:10:45.761Z,15.63
2023-04-11T09:13:26.463Z,18.75
2023-04-11T09:16:09.990Z,12.77
2023-04-11T09:18:47.125Z,9.52
2023-04-11T09:21:16.157Z,12.57
2023-04-11T09:23:43.723Z,12.57
2023-04-11T09:26:12.761Z,15.77
2023-04-11T09:28:44.772Z,16.58
2023-04-11T09:31:13.458Z,14.38
2023-04-11T09:33:53.539Z,11.48
2023-04-11T09:36:22.912Z,18.45
2023-04-11T09:38:52.023Z,17.30
2023-04-11T09:41:32.756Z,17.20
2023-04-11T09:44:01.124Z,19.23
2023-04-11T09:46:28.836Z,10.88
2023-04-11T09:48:56.682Z,14.93
2023-04-11T09:51:35.804Z,14.43
2023-04-11T09:54:05.482Z,13.95
2023-04-11T09:56:34.946Z,16.87
2023-04-11T09:59:04.085Z,14.75
2023-04-11T10:01:32.545Z,17.83
2023-04-11T10:04:01.477Z,13.20
2023-04-11T10:06:44.202Z,12.57
2023-04-11T10:09:13.130Z,19.48
2023-04-11T10:11:42.779Z,23.10
2023-04-11T10:14:39.330Z,13.50
2023-04-11T10:17:19.711Z,19.55
2023-04-11T10:19:51.591Z,16.80
2023-04-11T10:22:58.823Z,16.45
2023-04-11T10:25:27.136Z,13.65
2023-04-11T10:28:00.932Z,15.82
2023-04-11T10:30:40.832Z,15.63
2023-04-11T10:33:20.997Z,16.45
2023-04-11T10:36:12.319Z,19.35
2023-04-11T10:38:39.953Z,20.75
2023-04-11T10:41:22.891Z,15.60
2023-04-11T10:43:51.164Z,14.32
2023-04-11T10:46:25.748Z,18.77
2023-04-11T10:49:00.001Z,14.50
2023-04-11T10:51:29.194Z,14.27
2023-04-11T10:54:01.138Z,16.73
2023-04-11T10:56:45.522Z,17.37
2023-04-11T10:59:31.610Z,14.80
2023-04-11T11:02:01.351Z,17.62
2023-04-11T11:04:37.460Z,14.98
2023-04-11T11:07:07.327Z,19.02
2023-04-11T11:09:35.208Z,16.25
2023-04-11T11:12:16.063Z,10.88
2023-04-11T11:14:45.462Z,11.55
2023-04-11T11:17:13.939Z,10.15
2023-04-11T11:19:45.346Z,11.45
2023-04-11T11:22:17.021Z,13.15
2023-04-11T11:24:44.492Z,12.50
2023-04-11T11:27:25.109Z,13.85
2023-04-11T11:29:53.526Z,14.90
2023-04-11T11:32:28.391Z,17.73
2023-04-11T11:34:57.718Z,13.52
2023-04-11T11:37:25.845Z,13.35
2023-04-11T11:39:53.548Z,12.32
2023-04-11T11:42:21.266Z,11.35
2023-04-11T11:44:48.654Z,14.82
2023-04-11T11:47:16.374Z,15.13
2023-04-11T11:49:54.746Z,18.52
2023-04-11T11:52:34.482Z,20.27
2023-04-11T11:55:03.800Z,18.33
2023-04-11T11:57:34.426Z,16.92
2023-04-11T12:00:05.774Z,10.15
2023-04-11T12:02:35.360Z,12.00
2023-04-11T12:05:05.451Z,13.62
2023-04-11T12:07:42.131Z,16.08
2023-04-11T12:10:14.724Z,19.42
2023-04-11T12:12:43.602Z,15.05
2023-04-11T12:15:22.773Z,17.85
2023-04-11T12:17:51.864Z,15.27
2023-04-11T12:20:26.682Z,13.23
2023-04-11T12:25:23.070Z,11.45
2023-04-11T12:27:50.906Z,12.43
2023-04-11T12:30:19.002Z,15.05
2023-04-11T12:32:46.637Z,13.32
2023-04-11T12:35:14.070Z,11.23
2023-04-11T12:37:41.807Z,7.82
2023-04-11T12:40:12.109Z,10.98
2023-04-11T12:42:53.492Z,12.93
2023-04-11T12:45:24.202Z,10.85
2023-04-11T12:47:51.765Z,13.15
2023-04-11T12:50:19.292Z,8.52
2023-04-11T12:52:48.750Z,10.30
2023-04-11T12:55:16.224Z,9.57
2023-04-11T12:57:43.898Z,8.27
2023-04-11T13:00:12.907Z,10.50
2023-04-11T13:02:44.545Z,9.10
2023-04-11T13:05:15.708Z,8.88
2023-04-11T13:07:47.521Z,8.18
2023-04-11T13:10:16.221Z,9.07
2023-04-11T13:12:45.441Z,10.18
2023-04-11T13:15:15.385Z,7.95
2023-04-11T13:17:43.460Z,8.48
2023-04-11T13:20:11.635Z,8.63
2023-04-11T13:22:39.906Z,8.77
2023-04-11T13:25:08.277Z,8.05
2023-04-11T13:27:36.215Z,9.13
2023-04-11T13:30:05.018Z,9.07
2023-04-11T13:32:32.805Z,9.23
2023-04-11T13:35:00.527Z,9.20
2023-04-11T13:37:28.243Z,8.55
2023-04-11T13:39:56.075Z,8.63
2023-04-11T13:42:23.527Z,7.22
2023-04-11T13:44:50.906Z,11.45
2023-04-11T13:47:18.623Z,7.40
2023-04-11T13:49:45.994Z,7.90
2023-04-11T13:52:13.417Z,8.00
2023-04-11T13:54:41.164Z,7.07
2023-04-11T13:57:09.635Z,7.32
2023-04-11T13:59:37.203Z,6.85
2023-04-11T14:02:04.926Z,6.12
2023-04-11T14:04:32.726Z,5.87
2023-04-11T14:07:00.280Z,4.50
2023-04-11T14:09:27.960Z,8.98
2023-04-11T14:11:56.878Z,6.65
2023-04-11T14:14:24.365Z,3.25
2023-04-11T14:16:51.864Z,6.07
2023-04-11T14:19:22.303Z,6.03
2023-04-11T14:21:51.269Z,6.43
2023-04-11T14:24:22.406Z,4.97
2023-04-11T14:26:50.361Z,8.20
2023-04-11T14:29:18.835Z,5.65
2023-04-11T14:31:47.497Z,5.37
2023-04-11T14:34:15.312Z,7.30
2023-04-11T14:36:42.863Z,5.78
2023-04-11T14:39:10.430Z,4.30
2023-04-11T14:41:38.151Z,6.82
2023-04-11T14:44:05.690Z,9.27
2023-04-11T14:46:34.502Z,7.68
2023-04-11T14:49:02.488Z,3.50
2023-04-11T14:51:30.028Z,5.05
2023-04-11T14:53:59.774Z,6.03
2023-04-11T14:56:27.764Z,6.05
2023-04-11T14:58:55.284Z,7.55
2023-04-11T15:01:22.906Z,5.90
2023-04-11T15:03:50.780Z,10.30
2023-04-11T15:06:18.348Z,6.22
2023-04-11T15:08:45.869Z,5.15
2023-04-11T15:11:13.801Z,9.85
2023-04-11T15:13:41.243Z,6.68
2023-04-11T15:16:08.856Z,4.62
2023-04-11T15:18:36.599Z,7.53
2023-04-11T15:21:04.470Z,5.55
2023-04-11T15:23:31.888Z,6.20
2023-04-11T15:26:03.331Z,5.45
2023-04-11T15:28:35.923Z,6.50
2023-04-11T15:31:05.510Z,7.57
2023-04-11T15:33:33.539Z,11.88
2023-04-11T15:36:01.659Z,3.95
2023-04-11T15:38:29.544Z,5.28
2023-04-11T15:40:58.562Z,13.35
2023-04-11T15:43:26.409Z,6.55
2023-04-11T15:45:54.576Z,8.52
2023-04-11T15:48:22.051Z,5.25
2023-04-11T15:50:50.772Z,6.68
2023-04-11T15:53:18.621Z,6.10
2023-04-11T15:55:47.704Z,7.97
2023-04-11T15:58:15.293Z,8.82
2023-04-11T16:00:43.900Z,6.95
2023-04-11T16:03:11.973Z,3.17
2023-04-11T16:05:43.079Z,8.35
2023-04-11T16:08:11.068Z,25.48
2023-04-11T16:10:38.819Z,10.88
2023-04-11T16:13:06.239Z,5.93
2023-04-11T16:15:33.643Z,6.00
2023-04-11T16:18:01.478Z,8.02
2023-04-11T16:20:28.973Z,5.60
2023-04-11T16:22:56.447Z,5.55
2023-04-11T16:25:24.238Z,8.85
2023-04-11T16:27:51.856Z,5.90
2023-04-11T16:30:19.488Z,4.55
2023-04-11T16:32:47.295Z,6.07
2023-04-11T16:35:14.747Z,4.37
2023-04-11T16:37:42.372Z,4.35
2023-04-11T16:40:13.151Z,5.78
2023-04-11T16:42:40.648Z,10.73
2023-04-11T16:45:09.840Z,9.25
2023-04-11T16:47:38.082Z,6.87
2023-04-11T16:50:06.218Z,8.48
2023-04-11T16:52:33.909Z,6.37
2023-04-11T16:55:03.077Z,7.20
2023-04-11T16:57:33.226Z,5.87
2023-04-11T17:00:01.068Z,6.45
2023-04-11T17:02:29.629Z,4.78
2023-04-11T17:04:57.246Z,5.10
2023-04-11T17:07:25.013Z,5.12
2023-04-11T17:09:53.049Z,6.95
2023-04-11T17:12:21.017Z,7.70
2023-04-11T17:14:49.904Z,7.28
2023-04-11T17:17:17.630Z,6.68
2023-04-11T17:19:45.077Z,6.05
2023-04-11T17:22:12.824Z,8.40
2023-04-11T17:24:40.676Z,6.12
2023-04-11T17:27:08.182Z,6.57
2023-04-11T17:29:35.557Z,8.35
2023-04-11T17:32:04.066Z,5.62
2023-04-11T17:34:31.777Z,8.88
2023-04-11T17:36:59.171Z,5.10
2023-04-11T17:39:26.984Z,6.30
2023-04-11T17:41:54.595Z,5.57
2023-04-11T17:44:22.051Z,7.57
2023-04-11T17:46:49.871Z,6.97
2023-04-11T17:49:17.359Z,7.65
2023-04-11T17:51:56.348Z,4.47
2023-04-11T17:54:26.311Z,5.72
2023-04-11T17:56:53.859Z,3.70
2023-04-11T17:59:21.344Z,10.85
2023-04-11T18:01:49.195Z,5.15
2023-04-11T18:04:17.815Z,6.40
2023-04-11T18:06:48.293Z,16.00
2023-04-11T18:09:15.988Z,3.67
2023-04-11T18:11:44.109Z,5.37
2023-04-11T18:14:11.619Z,5.03
2023-04-11T18:16:40.112Z,3.78
2023-04-11T18:19:08.430Z,7.37
2023-04-11T18:21:35.965Z,4.30
2023-04-11T18:24:04.104Z,5.57
2023-04-11T18:26:31.894Z,3.20
2023-04-11T18:29:00.418Z,2.08
2023-04-11T18:31:28.294Z,3.58
2023-04-11T18:33:56.527Z,2.22
2023-04-11T18:36:24.959Z,2.25
2023-04-11T18:38:54.990Z,2.17
2023-04-11T18:41:23.035Z,3.60
2023-04-11T18:43:50.774Z,4.82
2023-04-11T18:46:18.312Z,3.92
2023-04-11T18:48:46.160Z,3.15
2023-04-11T18:51:13.625Z,3.05
2023-04-11T18:53:41.808Z,5.95
2023-04-11T18:56:09.916Z,2.55
2023-04-11T18:58:44.879Z,2.55
2023-04-11T19:01:16.840Z,3.08
2023-04-11T19:03:45.905Z,4.60
2023-04-11T19:06:14.168Z,3.95
2023-04-11T19:08:41.702Z,2.83
2023-04-11T19:11:09.128Z,4.18
2023-04-11T19:13:36.980Z,6.20
2023-04-11T19:16:05.111Z,2.55
2023-04-11T19:18:32.978Z,3.00
2023-04-11T19:21:00.774Z,5.00
2023-04-11T19:23:28.422Z,2.17
2023-04-11T19:25:55.814Z,5.87
2023-04-11T19:28:23.591Z,4.75
2023-04-11T19:30:51.172Z,4.25
2023-04-11T19:33:18.804Z,4.75
2023-04-11T19:35:46.750Z,2.12
2023-04-11T19:38:14.251Z,2.97
2023-04-11T19:40:41.841Z,4.43
2023-04-11T19:43:09.786Z,4.55
2023-04-11T19:45:37.459Z,6.45
2023-04-11T19:48:05.008Z,3.95
2023-04-11T19:50:32.758Z,3.50
2023-04-11T19:53:01.531Z,2.75
2023-04-11T19:55:29.311Z,4.07
2023-04-11T19:57:57.012Z,2.05
2023-04-11T20:00:26.578Z,4.85
2023-04-11T20:02:55.244Z,2.40
2023-04-11T20:05:23.883Z,3.75
2023-04-11T20:07:52.072Z,3.12
2023-04-11T20:10:20.097Z,1.42
2023-04-11T20:12:47.581Z,2.62
2023-04-11T20:15:15.262Z,2.03
2023-04-11T20:17:45.893Z,0.88
2023-04-11T20:20:15.390Z,3.40
2023-04-11T20:22:44.937Z,2.62
2023-04-11T20:25:12.501Z,2.62
2023-04-11T20:27:41.292Z,1.12
2023-04-11T20:30:10.706Z,2.47
2023-04-11T20:32:39.384Z,0.98
2023-04-11T20:35:08.917Z,2.83
2023-04-11T20:37:36.848Z,0.50
2023-04-11T20:40:10.927Z,1.55
2023-04-11T20:42:40.174Z,1.15
2023-04-11T20:45:10.431Z,1.73
2023-04-11T20:47:38.650Z,0.85
2023-04-11T20:50:08.946Z,1.85
2023-04-11T20:52:37.710Z,0.85
2023-04-11T20:55:05.552Z,1.10
2023-04-11T20:57:33.710Z,1.73
2023-04-11T21:00:02.261Z,4.78
2023-04-11T21:02:29.917Z,1.35
2023-04-11T21:04:57.719Z,1.73
2023-04-11T21:07:25.184Z,2.25
2023-04-11T21:09:52.682Z,1.20
2023-04-11T21:12:20.376Z,0.60
2023-04-11T21:14:47.804Z,2.00
2023-04-11T21:17:15.312Z,0.60
2023-04-11T21:19:42.985Z,0.50
2023-04-11T21:22:10.414Z,0.50
2023-04-11T21:24:37.807Z,1.40
2023-04-11T21:27:05.474Z,0.98
2023-04-11T21:29:32.924Z,1.30
2023-04-11T21:32:00.384Z,1.17
2023-04-11T21:34:28.081Z,0.70
2023-04-11T21:36:55.511Z,0.77
2023-04-11T21:39:22.981Z,0.40
2023-04-11T21:41:50.672Z,3.22
2023-04-11T21:44:18.124Z,1.25
2023-04-11T21:46:45.627Z,0.62
2023-04-11T21:49:13.414Z,1.35
2023-04-11T21:51:41.055Z,0.70
2023-04-11T21:54:08.482Z,0.88
2023-04-11T21:56:36.145Z,3.75
2023-04-11T21:59:03.525Z,0.70
2023-04-11T22:01:31.004Z,0.62
2023-04-11T22:03:59.438Z,1.02
2023-04-11T22:06:30.279Z,3.33
2023-04-11T22:08:58.428Z,0.93
2023-04-11T22:11:26.268Z,0.88
2023-04-11T22:13:53.756Z,0.52
2023-04-11T22:16:26.382Z,1.45
2023-04-11T22:18:54.491Z,2.10
2023-04-11T22:21:21.918Z,0.70
2023-04-11T22:23:54.468Z,1.60
2023-04-11T22:26:35.054Z,0.60
2023-04-11T22:29:05.772Z,2.50
2023-04-11T22:31:38.934Z,1.35
2023-04-11T22:34:08.407Z,0.95
2023-04-11T22:36:36.104Z,4.20
2023-04-11T22:39:04.952Z,0.52
2023-04-11T22:41:38.342Z,0.73
2023-04-11T22:44:06.510Z,0.43
2023-04-11T22:46:38.640Z,1.35
2023-04-11T22:49:09.703Z,0.68
2023-04-11T22:51:38.285Z,0.88
2023-04-11T22:54:06.024Z,0.98
2023-04-11T22:56:33.443Z,0.40
2023-04-11T22:59:00.790Z,0.62
2023-04-11T23:01:28.614Z,3.72
2023-04-11T23:03:56.518Z,0.95
2023-04-11T23:06:24.164Z,1.45
2023-04-11T23:08:53.994Z,0.60
2023-04-11T23:11:21.643Z,1.83
2023-04-11T23:13:49.089Z,1.00
2023-04-11T23:16:16.780Z,0.57
2023-04-11T23:18:44.301Z,1.00
2023-04-11T23:21:14.405Z,0.65
2023-04-11T23:23:42.761Z,1.35
2023-04-11T23:26:17.463Z,0.50
2023-04-11T23:28:46.714Z,3.03
2023-04-11T23:31:14.167Z,1.30
2023-04-11T23:33:42.491Z,1.30
2023-04-11T23:36:11.157Z,0.98
2023-04-11T23:38:38.887Z,0.90
2023-04-11T23:41:06.572Z,1.37
2023-04-11T23:43:34.319Z,10.40
2023-04-11T23:46:01.816Z,0.70
2023-04-11T23:48:29.278Z,1.98
2023-04-11T23:50:57.194Z,2.22
2023-04-11T23:53:24.679Z,0.95
2023-04-11T23:55:52.094Z,0.93
2023-04-11T23:58:19.819Z,1.35
